createdAt,value
2022-12-09T00:00:13.815Z,22.90
2022-12-09T00:02:41.261Z,22.70
2022-12-09T00:05:09.503Z,23.90
2022-12-09T00:07:36.992Z,23.00
2022-12-09T00:10:05.703Z,22.80
2022-12-09T00:12:33.392Z,23.50
2022-12-09T00:15:00.738Z,25.00
2022-12-09T00:17:28.207Z,24.40
2022-12-09T00:19:55.597Z,24.10
2022-12-09T00:22:22.918Z,23.40
2022-12-09T00:24:50.334Z,23.00
2022-12-09T00:27:17.612Z,23.70
2022-12-09T00:29:45.062Z,22.00
2022-12-09T00:32:12.700Z,21.40
2022-12-09T00:34:40.080Z,21.00
2022-12-09T00:37:07.518Z,20.90
2022-12-09T00:39:35.003Z,19.40
2022-12-09T00:42:02.611Z,19.80
2022-12-09T00:44:30.198Z,20.40
2022-12-09T00:46:57.653Z,20.70
2022-12-09T00:49:25.241Z,21.40
2022-12-09T00:51:54.212Z,21.70
2022-12-09T00:54:21.497Z,21.80
2022-12-09T00:56:48.744Z,21.70
2022-12-09T00:59:15.929Z,22.60
2022-12-09T01:01:43.256Z,20.50
2022-12-09T01:04:10.863Z,20.50
2022-12-09T01:06:38.444Z,21.00
2022-12-09T01:09:06.025Z,21.40
2022-12-09T01:11:33.350Z,19.70
2022-12-09T01:14:02.361Z,18.80
2022-12-09T01:16:32.605Z,19.10
2022-12-09T01:19:01.864Z,19.30
2022-12-09T01:21:30.123Z,19.90
2022-12-09T01:23:57.555Z,20.50
2022-12-09T01:26:25.283Z,20.10
2022-12-09T01:28:53.389Z,21.20
2022-12-09T01:31:23.991Z,22.40
2022-12-09T01:33:52.587Z,22.10
2022-12-09T01:36:22.737Z,20.90
2022-12-09T01:38:50.606Z,21.10
2022-12-09T01:41:19.321Z,21.80
2022-12-09T01:44:06.601Z,22.10
2022-12-09T01:46:34.068Z,23.70
2022-12-09T01:49:01.487Z,20.10
2022-12-09T01:51:30.424Z,21.10
2022-12-09T01:53:58.745Z,21.10
2022-12-09T01:56:30.479Z,21.00
2022-12-09T01:59:01.846Z,20.50
2022-12-09T02:01:29.447Z,21.20
2022-12-09T02:03:56.928Z,20.70
2022-12-09T02:06:24.451Z,21.20
2022-12-09T02:08:52.462Z,21.60
2022-12-09T02:11:44.739Z,22.10
2022-12-09T02:14:16.877Z,22.00
2022-12-09T02:17:21.424Z,21.10
2022-12-09T02:20:01.461Z,21.60
2022-12-09T02:22:38.474Z,22.60
2022-12-09T02:25:19.954Z,22.00
2022-12-09T02:28:03.990Z,21.70
2022-12-09T02:30:50.554Z,22.20
2022-12-09T02:33:20.640Z,22.70
2022-12-09T02:35:54.993Z,23.10
2022-12-09T02:38:22.294Z,23.10
2022-12-09T02:41:10.229Z,25.70
2022-12-09T02:43:49.643Z,24.00
2022-12-09T02:46:20.272Z,23.60
2022-12-09T02:48:53.535Z,24.10
2022-12-09T02:51:22.124Z,23.10
2022-12-09T02:53:56.324Z,23.40
2022-12-09T02:56:24.876Z,23.50
2022-12-09T02:58:52.326Z,24.30
2022-12-09T03:01:36.605Z,24.60
2022-12-09T03:04:07.280Z,24.70
2022-12-09T03:06:45.584Z,24.60
2022-12-09T03:09:21.568Z,24.30
2022-12-09T03:11:50.810Z,23.60
2022-12-09T03:14:27.808Z,23.00
2022-12-09T03:17:08.992Z,23.10
2022-12-09T03:19:57.790Z,23.00
2022-12-09T03:22:29.490Z,22.60
2022-12-09T03:25:21.405Z,22.40
2022-12-09T03:27:57.828Z,23.00
2022-12-09T03:30:25.862Z,23.30
2022-12-09T03:32:55.817Z,22.30
2022-12-09T03:35:29.858Z,22.40
2022-12-09T03:37:59.294Z,22.30
2022-12-09T03:40:29.587Z,22.50
2022-12-09T03:43:02.383Z,22.10
2022-12-09T03:45:30.221Z,23.90
2022-12-09T03:47:57.990Z,23.50
2022-12-09T03:50:29.421Z,24.10
2022-12-09T03:53:20.381Z,24.00
2022-12-09T03:56:24.614Z,24.80
2022-12-09T03:58:55.442Z,24.30
2022-12-09T04:01:25.533Z,24.30
2022-12-09T04:03:55.716Z,25.00
2022-12-09T04:06:24.683Z,24.60
2022-12-09T04:08:52.131Z,26.60
2022-12-09T04:11:20.405Z,25.80
2022-12-09T04:13:47.941Z,24.20
2022-12-09T04:16:15.670Z,25.20
2022-12-09T04:18:43.303Z,23.60
2022-12-09T04:21:13.304Z,24.40
2022-12-09T04:23:43.221Z,26.00
2022-12-09T04:26:16.322Z,24.20
2022-12-09T04:28:44.098Z,23.90
2022-12-09T04:31:13.035Z,44.60
2022-12-09T04:33:41.745Z,25.00
2022-12-09T04:36:12.400Z,24.90
2022-12-09T04:38:40.962Z,25.80
2022-12-09T04:41:09.192Z,26.80
2022-12-09T04:43:36.506Z,26.20
2022-12-09T04:46:06.655Z,26.60
2022-12-09T04:48:34.307Z,24.50
2022-12-09T04:51:02.027Z,24.80
2022-12-09T04:53:29.438Z,24.70
2022-12-09T04:56:05.463Z,25.10
2022-12-09T04:58:33.728Z,25.90
2022-12-09T05:01:09.811Z,26.30
2022-12-09T05:03:37.671Z,27.60
2022-12-09T05:06:07.962Z,28.60
2022-12-09T05:08:35.839Z,27.30
2022-12-09T05:11:04.058Z,27.10
2022-12-09T05:13:31.530Z,25.90
2022-12-09T05:16:01.968Z,27.30
2022-12-09T05:18:29.962Z,27.30
2022-12-09T05:20:57.878Z,26.10
2022-12-09T05:23:26.037Z,25.90
2022-12-09T05:25:56.030Z,27.80
2022-12-09T05:28:23.268Z,25.30
2022-12-09T05:30:50.553Z,25.00
2022-12-09T05:33:18.323Z,27.20
2022-12-09T05:35:52.685Z,27.10
2022-12-09T05:38:20.857Z,26.60
2022-12-09T05:40:48.491Z,27.90
2022-12-09T05:43:16.132Z,27.00
2022-12-09T05:45:44.413Z,27.80
2022-12-09T05:48:11.997Z,27.30
2022-12-09T05:50:39.443Z,27.70
2022-12-09T05:53:06.760Z,27.90
2022-12-09T05:55:34.140Z,29.20
2022-12-09T05:58:01.525Z,29.60
2022-12-09T06:00:29.146Z,29.60
2022-12-09T06:02:56.849Z,30.20
2022-12-09T06:05:24.512Z,47.30
2022-12-09T06:07:52.290Z,29.70
2022-12-09T06:10:19.877Z,29.70
2022-12-09T06:12:47.270Z,30.30
2022-12-09T06:15:21.251Z,31.50
2022-12-09T06:17:49.058Z,31.60
2022-12-09T06:20:18.829Z,29.60
2022-12-09T06:22:46.357Z,30.50
2022-12-09T06:25:13.947Z,30.50
2022-12-09T06:27:41.841Z,30.80
2022-12-09T06:30:10.049Z,32.40
2022-12-09T06:32:37.505Z,52.70
2022-12-09T06:35:07.703Z,37.20
2022-12-09T06:37:35.556Z,40.30
2022-12-09T06:40:03.311Z,41.60
2022-12-09T06:42:30.740Z,41.50
2022-12-09T06:44:58.159Z,42.10
2022-12-09T06:47:25.684Z,42.00
2022-12-09T06:49:53.285Z,41.10
2022-12-09T06:52:20.894Z,44.00
2022-12-09T06:54:48.245Z,44.50
2022-12-09T06:57:15.552Z,44.50
2022-12-09T06:59:42.866Z,44.30
2022-12-09T07:02:11.647Z,44.00
2022-12-09T07:04:39.522Z,43.10
2022-12-09T07:07:07.284Z,44.50
2022-12-09T07:09:34.775Z,44.90
2022-12-09T07:12:02.388Z,46.40
2022-12-09T07:14:29.638Z,42.60
2022-12-09T07:16:57.257Z,41.60
2022-12-09T07:19:24.803Z,43.30
2022-12-09T07:21:52.474Z,42.80
2022-12-09T07:24:20.666Z,41.60
2022-12-09T07:26:49.321Z,41.30
2022-12-09T07:29:17.801Z,41.90
2022-12-09T07:31:45.292Z,42.60
2022-12-09T07:34:12.984Z,43.00
2022-12-09T07:36:41.514Z,44.00
2022-12-09T07:39:14.740Z,45.40
2022-12-09T07:41:42.736Z,47.50
2022-12-09T07:44:11.134Z,46.70
2022-12-09T07:46:39.711Z,46.70
2022-12-09T07:49:07.411Z,43.40
2022-12-09T07:51:34.984Z,44.10
2022-12-09T07:54:03.361Z,42.50
2022-12-09T07:56:30.907Z,42.20
2022-12-09T07:58:58.834Z,40.30
2022-12-09T08:01:30.048Z,38.80
2022-12-09T08:03:58.187Z,39.40
2022-12-09T08:06:28.238Z,38.40
2022-12-09T08:09:04.185Z,36.10
2022-12-09T08:11:33.109Z,35.50
2022-12-09T08:14:09.255Z,35.50
2022-12-09T08:16:38.400Z,33.60
2022-12-09T08:19:06.202Z,33.90
2022-12-09T08:21:34.316Z,34.00
2022-12-09T08:24:06.043Z,35.50
2022-12-09T08:26:35.181Z,36.20
2022-12-09T08:29:06.604Z,35.80
2022-12-09T08:31:40.326Z,34.50
2022-12-09T08:34:09.243Z,33.40
2022-12-09T08:36:37.357Z,31.70
2022-12-09T08:39:05.281Z,31.10
2022-12-09T08:41:37.567Z,32.00
2022-12-09T08:44:07.203Z,30.40
2022-12-09T08:46:37.240Z,29.60
2022-12-09T08:49:06.439Z,30.00
2022-12-09T08:51:34.093Z,28.00
2022-12-09T08:54:02.492Z,29.20
2022-12-09T08:56:29.976Z,30.00
2022-12-09T08:58:57.436Z,30.00
2022-12-09T09:01:32.377Z,29.90
2022-12-09T09:04:06.415Z,28.70
2022-12-09T09:06:34.621Z,29.30
2022-12-09T09:09:03.099Z,28.40
2022-12-09T09:11:31.613Z,27.30
2022-12-09T09:13:59.503Z,27.70
2022-12-09T09:16:27.576Z,28.00
2022-12-09T09:18:56.393Z,28.10
2022-12-09T09:21:26.884Z,27.30
2022-12-09T09:23:54.832Z,26.70
2022-12-09T09:26:26.008Z,26.80
2022-12-09T09:28:55.094Z,26.20
2022-12-09T09:31:24.099Z,26.50
2022-12-09T09:33:52.157Z,25.80
2022-12-09T09:36:22.595Z,24.80
2022-12-09T09:38:53.154Z,27.50
2022-12-09T09:41:45.464Z,25.60
2022-12-09T09:44:21.857Z,25.70
2022-12-09T09:46:50.938Z,25.80
2022-12-09T09:49:37.408Z,24.80
2022-12-09T09:52:09.662Z,24.80
2022-12-09T09:54:38.031Z,25.30
2022-12-09T09:57:24.130Z,23.20
2022-12-09T09:59:54.291Z,23.80
2022-12-09T10:02:46.342Z,23.50
2022-12-09T10:05:19.528Z,23.00
2022-12-09T10:07:52.603Z,22.50
2022-12-09T10:10:32.373Z,21.30
2022-12-09T10:13:17.913Z,22.10
2022-12-09T10:16:29.197Z,21.90
2022-12-09T10:19:07.395Z,22.20
2022-12-09T10:21:42.816Z,21.60
2022-12-09T10:24:39.148Z,21.60
2022-12-09T10:27:25.218Z,21.70
2022-12-09T10:30:01.031Z,20.50
2022-12-09T10:32:33.554Z,19.20
2022-12-09T10:35:02.442Z,20.00
2022-12-09T10:37:33.910Z,19.30
2022-12-09T10:40:10.988Z,19.30
2022-12-09T10:43:05.699Z,19.60
2022-12-09T10:46:07.930Z,18.00
2022-12-09T10:48:32.683Z,18.10
2022-12-09T10:51:10.550Z,18.70
2022-12-09T10:53:44.004Z,18.10
2022-12-09T10:56:20.134Z,19.00
2022-12-09T10:58:47.986Z,17.90
2022-12-09T11:01:16.222Z,17.90
2022-12-09T11:03:53.613Z,17.70
2022-12-09T11:06:31.352Z,16.60
2022-12-09T11:09:01.142Z,16.60
2022-12-09T11:11:50.595Z,17.30
2022-12-09T11:14:25.718Z,17.70
2022-12-09T11:16:59.672Z,17.80
2022-12-09T11:19:39.029Z,17.60
2022-12-09T11:22:15.266Z,17.40
2022-12-09T11:24:42.719Z,17.90
2022-12-09T11:27:32.047Z,16.90
2022-12-09T11:30:35.633Z,17.20
2022-12-09T11:33:16.396Z,17.30
2022-12-09T11:35:44.739Z,17.50
2022-12-09T11:38:40.196Z,17.40
2022-12-09T11:41:15.233Z,17.10
2022-12-09T11:43:54.695Z,16.60
2022-12-09T11:46:27.920Z,17.10
2022-12-09T11:49:04.349Z,16.60
2022-12-09T11:51:35.980Z,17.50
2022-12-09T11:54:15.388Z,17.60
2022-12-09T11:56:43.555Z,16.50
2022-12-09T11:59:34.758Z,16.00
2022-12-09T12:02:30.368Z,16.30
2022-12-09T12:05:09.062Z,17.10
2022-12-09T12:07:46.489Z,16.70
2022-12-09T12:10:24.460Z,16.20
2022-12-09T12:13:04.448Z,16.50
2022-12-09T12:15:46.672Z,17.50
2022-12-09T12:18:19.428Z,17.30
2022-12-09T12:21:28.025Z,17.80
2022-12-09T12:24:10.636Z,18.80
2022-12-09T12:27:10.838Z,17.40
2022-12-09T12:29:56.448Z,17.60
2022-12-09T12:33:59.850Z,18.20
2022-12-09T12:36:03.305Z,18.50
2022-12-09T12:38:49.099Z,18.50
2022-12-09T12:41:16.227Z,19.90
2022-12-09T12:44:08.338Z,19.40
2022-12-09T12:46:50.713Z,19.30
2022-12-09T12:49:17.953Z,34.50
2022-12-09T12:51:52.664Z,18.40
2022-12-09T12:54:48.580Z,18.70
2022-12-09T12:57:22.184Z,18.60
2022-12-09T13:00:08.158Z,19.80
2022-12-09T13:03:00.013Z,19.20
2022-12-09T13:05:42.326Z,18.10
2022-12-09T13:08:22.818Z,17.30
2022-12-09T13:10:55.792Z,17.80
2022-12-09T13:13:38.379Z,18.10
2022-12-09T13:16:39.300Z,18.70
2022-12-09T13:19:30.092Z,20.40
2022-12-09T13:21:57.976Z,21.60
2022-12-09T13:24:33.534Z,19.90
2022-12-09T13:27:19.099Z,20.10
2022-12-09T13:30:05.543Z,20.90
2022-12-09T13:33:03.359Z,19.90
2022-12-09T13:35:38.365Z,20.40
2022-12-09T13:38:32.515Z,21.10
2022-12-09T13:41:00.315Z,20.80
2022-12-09T13:43:31.871Z,19.00
2022-12-09T13:46:01.072Z,19.40
2022-12-09T13:48:36.315Z,20.60
2022-12-09T13:51:03.844Z,20.30
2022-12-09T13:53:41.314Z,21.50
2022-12-09T13:56:28.858Z,37.40
2022-12-09T13:59:20.889Z,20.80
2022-12-09T14:01:53.339Z,21.00
2022-12-09T14:04:29.092Z,20.20
2022-12-09T14:07:09.851Z,20.40
2022-12-09T14:09:47.131Z,20.50
2022-12-09T14:12:40.991Z,21.00
2022-12-09T14:15:23.623Z,21.30
2022-12-09T14:17:50.828Z,22.30
2022-12-09T14:20:28.256Z,21.60
2022-12-09T14:23:07.495Z,21.40
2022-12-09T14:25:34.760Z,21.50
2022-12-09T14:28:13.930Z,22.00
2022-12-09T14:30:48.925Z,22.10
2022-12-09T14:33:32.659Z,21.90
2022-12-09T14:36:15.064Z,21.50
2022-12-09T14:39:22.513Z,22.10
2022-12-09T14:41:45.088Z,22.40
2022-12-09T14:44:41.544Z,21.60
2022-12-09T14:47:17.023Z,22.30
2022-12-09T14:49:49.165Z,22.70
2022-12-09T14:52:29.113Z,22.50
2022-12-09T14:54:58.858Z,23.00
2022-12-09T14:57:41.677Z,23.20
2022-12-09T15:00:30.772Z,24.10
2022-12-09T15:03:30.656Z,25.10
2022-12-09T15:06:18.577Z,24.80
2022-12-09T15:08:46.844Z,24.50
2022-12-09T15:11:24.172Z,26.60
2022-12-09T15:13:53.915Z,28.40
2022-12-09T15:16:24.407Z,30.20
2022-12-09T15:18:54.213Z,30.30
2022-12-09T15:21:30.144Z,30.60
2022-12-09T15:23:59.451Z,31.00
2022-12-09T15:26:35.185Z,30.30
2022-12-09T15:29:05.602Z,31.30
2022-12-09T15:31:34.380Z,32.10
2022-12-09T15:34:20.424Z,32.50
2022-12-09T15:36:55.452Z,31.80
2022-12-09T15:39:52.255Z,32.30
2022-12-09T15:42:27.205Z,32.90
2022-12-09T15:45:09.819Z,33.00
2022-12-09T15:47:41.888Z,32.40
2022-12-09T15:50:29.383Z,32.10
2022-12-09T15:53:14.007Z,34.40
2022-12-09T15:56:02.684Z,37.10
2022-12-09T15:58:40.396Z,39.40
2022-12-09T16:01:07.839Z,43.20
2022-12-09T16:03:36.910Z,44.30
2022-12-09T16:06:09.416Z,44.70
2022-12-09T16:08:44.814Z,44.90
2022-12-09T16:11:12.443Z,47.40
2022-12-09T16:13:59.078Z,46.50
2022-12-09T16:16:51.694Z,44.50
2022-12-09T16:19:36.139Z,46.70
2022-12-09T16:22:09.085Z,46.60
2022-12-09T16:27:39.748Z,48.00
2022-12-09T16:30:16.156Z,46.70
2022-12-09T16:32:54.825Z,47.60
2022-12-09T16:35:33.393Z,49.30
2022-12-09T16:38:19.540Z,49.10
2022-12-09T16:40:46.718Z,46.40
2022-12-09T16:43:17.085Z,47.90
2022-12-09T16:45:45.633Z,49.60
2022-12-09T16:48:13.570Z,53.50
2022-12-09T16:51:09.607Z,55.20
2022-12-09T16:53:52.469Z,55.90
2022-12-09T16:56:19.666Z,56.00
2022-12-09T16:58:47.392Z,55.60
2022-12-09T17:01:16.568Z,56.50
2022-12-09T17:03:55.467Z,59.40
2022-12-09T17:06:22.644Z,59.10
2022-12-09T17:08:49.866Z,57.90
2022-12-09T17:11:17.853Z,58.10
2022-12-09T17:13:45.087Z,58.30
2022-12-09T17:16:12.516Z,59.50
2022-12-09T17:18:39.980Z,58.70
2022-12-09T17:21:13.017Z,59.40
2022-12-09T17:23:43.688Z,61.30
2022-12-09T17:26:16.786Z,65.00
2022-12-09T17:28:44.906Z,62.80
2022-12-09T17:31:30.296Z,66.50
2022-12-09T17:33:57.846Z,66.80
2022-12-09T17:36:25.038Z,68.10
2022-12-09T17:38:52.256Z,69.30
2022-12-09T17:41:23.519Z,66.40
2022-12-09T17:43:51.009Z,68.90
2022-12-09T17:46:18.425Z,71.30
2022-12-09T17:48:45.760Z,71.70
2022-12-09T17:51:15.172Z,76.20
2022-12-09T17:53:43.447Z,73.20
2022-12-09T17:56:21.910Z,76.50
2022-12-09T17:58:56.459Z,79.60
2022-12-09T18:01:24.705Z,82.50
2022-12-09T18:03:57.141Z,74.40
2022-12-09T18:06:26.887Z,73.70
2022-12-09T18:08:54.741Z,78.30
2022-12-09T18:11:22.906Z,81.20
2022-12-09T18:13:50.300Z,85.50
2022-12-09T18:16:18.045Z,87.00
2022-12-09T18:18:45.932Z,87.90
2022-12-09T18:21:16.070Z,90.00
2022-12-09T18:23:44.001Z,84.20
2022-12-09T18:26:16.773Z,81.10
2022-12-09T18:28:44.253Z,84.90
2022-12-09T18:31:14.756Z,82.50
2022-12-09T18:33:42.885Z,76.30
2022-12-09T18:36:16.657Z,77.30
2022-12-09T18:38:44.003Z,77.60
2022-12-09T18:41:20.087Z,78.60
2022-12-09T18:43:49.816Z,79.80
2022-12-09T18:46:23.869Z,78.50
2022-12-09T18:49:01.508Z,79.50
2022-12-09T18:51:29.480Z,78.50
2022-12-09T18:54:01.120Z,79.70
2022-12-09T18:56:29.401Z,91.30
2022-12-09T18:59:06.627Z,92.50
2022-12-09T19:01:40.384Z,94.10
2022-12-09T19:04:37.343Z,93.80
2022-12-09T19:07:04.687Z,93.50
2022-12-09T19:09:34.765Z,96.90
2022-12-09T19:12:37.939Z,95.90
2022-12-09T19:14:51.632Z,96.40
2022-12-09T19:17:18.999Z,98.50
2022-12-09T19:19:47.362Z,99.90
2022-12-09T19:22:14.692Z,99.90
2022-12-09T19:24:43.449Z,99.80
2022-12-09T19:27:11.116Z,99.90
2022-12-09T19:29:39.562Z,99.90
2022-12-09T19:32:23.626Z,99.90
2022-12-09T19:34:54.144Z,99.90
2022-12-09T19:37:21.478Z,99.90
2022-12-09T19:39:49.175Z,99.90
2022-12-09T19:42:16.397Z,99.90
2022-12-09T19:45:00.738Z,99.90
2022-12-09T19:47:29.378Z,99.90
2022-12-09T19:49:56.636Z,99.90
2022-12-09T19:52:23.897Z,99.90
2022-12-09T19:54:51.212Z,99.90
2022-12-09T19:57:18.408Z,96.60
2022-12-09T19:59:47.411Z,97.60
2022-12-09T20:02:15.156Z,97.80
2022-12-09T20:04:50.846Z,96.90
2022-12-09T20:07:19.650Z,96.30
2022-12-09T20:09:47.524Z,96.50
2022-12-09T20:12:14.839Z,94.30
2022-12-09T20:14:43.192Z,92.70
2022-12-09T20:17:10.501Z,90.60
2022-12-09T20:19:37.758Z,90.80
2022-12-09T20:22:04.950Z,92.60
2022-12-09T20:24:32.272Z,93.60
2022-12-09T20:26:59.649Z,97.20
2022-12-09T20:29:29.066Z,97.10
2022-12-09T20:31:59.854Z,97.60
2022-12-09T20:34:27.176Z,99.90
2022-12-09T20:36:54.768Z,99.90
2022-12-09T20:39:22.242Z,99.90
2022-12-09T20:41:49.697Z,99.90
2022-12-09T20:44:20.067Z,99.90
2022-12-09T20:46:50.400Z,98.90
2022-12-09T20:49:19.814Z,99.00
2022-12-09T20:51:48.716Z,99.80
2022-12-09T20:54:16.298Z,99.90
2022-12-09T20:56:43.740Z,99.90
2022-12-09T20:59:13.714Z,99.90
2022-12-09T21:01:43.640Z,99.90
2022-12-09T21:04:10.901Z,99.90
2022-12-09T21:06:39.695Z,98.70
2022-12-09T21:09:10.466Z,97.10
2022-12-09T21:11:37.993Z,99.60
2022-12-09T21:14:06.954Z,99.50
2022-12-09T21:16:37.753Z,98.30
2022-12-09T21:19:07.277Z,99.90
2022-12-09T21:21:36.614Z,96.70
2022-12-09T21:24:04.741Z,98.60
2022-12-09T21:26:31.985Z,99.90
2022-12-09T21:29:01.348Z,99.90
2022-12-09T21:31:30.943Z,99.90
2022-12-09T21:34:03.983Z,99.90
2022-12-09T21:36:37.135Z,99.30
2022-12-09T21:39:05.474Z,99.90
2022-12-09T21:41:34.719Z,99.90
2022-12-09T21:44:02.401Z,99.90
2022-12-09T21:46:37.264Z,99.90
2022-12-09T21:49:06.340Z,99.90
2022-12-09T21:51:35.004Z,99.90
2022-12-09T21:54:02.644Z,99.90
2022-12-09T21:56:32.807Z,99.90
2022-12-09T21:59:00.979Z,99.90
2022-12-09T22:01:34.856Z,99.90
2022-12-09T22:04:04.523Z,99.90
2022-12-09T22:06:32.136Z,99.90
2022-12-09T22:08:59.929Z,99.90
2022-12-09T22:11:29.553Z,99.90
2022-12-09T22:14:01.482Z,99.90
2022-12-09T22:16:31.951Z,99.90
2022-12-09T22:19:00.789Z,99.90
2022-12-09T22:21:30.697Z,99.90
2022-12-09T22:24:00.478Z,99.90
2022-12-09T22:26:28.717Z,99.90
2022-12-09T22:28:58.606Z,99.90
2022-12-09T22:31:29.183Z,99.90
2022-12-09T22:34:02.439Z,99.90
2022-12-09T22:36:29.937Z,99.90
2022-12-09T22:38:57.347Z,99.90
2022-12-09T22:41:27.067Z,99.90
2022-12-09T22:43:55.807Z,99.90
2022-12-09T22:46:26.961Z,99.90
2022-12-09T22:48:56.379Z,99.90
2022-12-09T22:51:29.589Z,99.90
2022-12-09T22:53:57.952Z,99.90
2022-12-09T22:56:25.958Z,99.90
2022-12-09T22:58:54.007Z,99.90
2022-12-09T23:01:27.800Z,99.90
2022-12-09T23:03:56.459Z,99.90
2022-12-09T23:06:25.150Z,99.90
2022-12-09T23:08:53.214Z,99.90
2022-12-09T23:11:22.680Z,99.90
2022-12-09T23:13:50.382Z,99.90
2022-12-09T23:16:20.373Z,99.90
2022-12-09T23:18:47.981Z,99.90
2022-12-09T23:21:21.177Z,99.90
2022-12-09T23:23:51.173Z,99.90
2022-12-09T23:26:19.972Z,99.90
2022-12-09T23:28:50.202Z,99.90
2022-12-09T23:31:20.064Z,99.90
2022-12-09T23:33:48.248Z,99.90
2022-12-09T23:36:25.040Z,99.90
2022-12-09T23:38:53.423Z,99.90
2022-12-09T23:41:22.528Z,99.90
2022-12-09T23:43:51.041Z,99.90
2022-12-09T23:46:21.362Z,99.90
2022-12-09T23:48:50.253Z,99.90
2022-12-09T23:51:19.170Z,99.90
2022-12-09T23:53:48.891Z,99.90
2022-12-09T23:56:23.926Z,99.90
2022-12-09T23:58:59.351Z,99.90
